createdAt,value
2023-04-14T00:00:27.604Z,235.65
2023-04-14T00:01:27.622Z,236.90
2023-04-14T00:02:27.678Z,238.69
2023-04-14T00:03:27.786Z,234.51
2023-04-14T00:04:27.834Z,238.47
2023-04-14T00:05:27.708Z,240.50
2023-04-14T00:06:27.716Z,236.31
2023-04-14T00:07:27.729Z,236.06
2023-04-14T00:08:27.742Z,240.13
2023-04-14T00:09:27.776Z,235.05
2023-04-14T00:10:27.794Z,234.53
2023-04-14T00:11:27.795Z,237.20
2023-04-14T00:12:27.795Z,237.87
2023-04-14T00:13:27.799Z,238.75
2023-04-14T00:14:27.820Z,235.87
2023-04-14T00:15:27.877Z,239.84
2023-04-14T00:16:27.893Z,235.42
2023-04-14T00:17:27.911Z,238.91
2023-04-14T00:18:27.896Z,235.66
2023-04-14T00:19:27.927Z,236.69
2023-04-14T00:20:27.921Z,235.61
2023-04-14T00:21:27.969Z,238.43
2023-04-14T00:22:27.960Z,239.38
2023-04-14T00:23:28.109Z,238.49
2023-04-14T00:24:27.981Z,237.01
2023-04-14T00:25:28.022Z,236.19
2023-04-14T00:26:28.066Z,238.23
2023-04-14T00:27:28.062Z,237.43
2023-04-14T00:28:28.080Z,237.19
2023-04-14T00:29:28.120Z,238.96
2023-04-14T00:30:28.098Z,240.61
2023-04-14T00:31:28.231Z,238.47
2023-04-14T00:32:28.211Z,240.27
2023-04-14T00:33:28.171Z,235.29
2023-04-14T00:34:28.179Z,237.16
2023-04-14T00:35:28.237Z,240.48
2023-04-14T00:36:28.187Z,236.32
2023-04-14T00:37:28.303Z,236.98
2023-04-14T00:38:28.284Z,237.66
2023-04-14T00:39:28.296Z,238.47
2023-04-14T00:40:28.290Z,238.20
2023-04-14T00:41:28.307Z,239.45
2023-04-14T00:42:28.342Z,236.02
2023-04-14T00:43:28.377Z,240.54
2023-04-14T00:44:28.388Z,235.94
2023-04-14T00:45:28.434Z,238.82
2023-04-14T00:46:28.506Z,234.40
2023-04-14T00:47:28.475Z,236.84
2023-04-14T00:48:28.533Z,238.40
2023-04-14T00:49:28.589Z,230.48
2023-04-14T00:50:28.539Z,235.65
2023-04-14T00:51:28.539Z,240.33
2023-04-14T00:52:28.545Z,234.58
2023-04-14T00:53:28.587Z,237.04
2023-04-14T00:54:28.581Z,238.77
2023-04-14T00:55:28.679Z,238.59
2023-04-14T00:56:28.668Z,237.12
2023-04-14T00:57:28.672Z,235.49
2023-04-14T00:58:28.732Z,236.92
2023-04-14T00:59:28.729Z,240.45
2023-04-14T01:00:28.740Z,239.21
2023-04-14T01:01:28.794Z,236.06
2023-04-14T01:02:28.989Z,239.74
2023-04-14T01:03:29.012Z,236.60
2023-04-14T01:04:36.706Z,236.65
2023-04-14T01:05:29.874Z,236.71
2023-04-14T01:06:28.843Z,237.33
2023-04-14T01:07:28.783Z,237.24
2023-04-14T01:08:28.796Z,236.80
2023-04-14T01:09:28.792Z,235.69
2023-04-14T01:10:28.770Z,238.30
2023-04-14T01:11:28.728Z,234.81
2023-04-14T01:12:28.783Z,236.75
2023-04-14T01:13:28.785Z,238.05
2023-04-14T01:14:28.735Z,241.05
2023-04-14T01:15:28.757Z,234.97
2023-04-14T01:16:28.819Z,237.78
2023-04-14T01:17:28.761Z,240.43
2023-04-14T01:18:28.675Z,238.08
2023-04-14T01:19:28.685Z,239.56
2023-04-14T01:20:28.697Z,237.48
2023-04-14T01:21:28.671Z,232.52
2023-04-14T01:22:28.675Z,238.01
2023-04-14T01:23:28.692Z,235.89
2023-04-14T01:24:28.681Z,237.19
2023-04-14T01:25:28.673Z,240.01
2023-04-14T01:26:28.775Z,239.64
2023-04-14T01:27:28.718Z,239.78
2023-04-14T01:28:28.756Z,235.81
2023-04-14T01:29:28.792Z,238.61
2023-04-14T01:30:28.799Z,236.31
2023-04-14T01:31:28.833Z,237.82
2023-04-14T01:32:28.838Z,237.33
2023-04-14T01:33:28.865Z,236.68
2023-04-14T01:34:28.867Z,236.43
2023-04-14T01:35:28.863Z,238.32
2023-04-14T01:36:28.942Z,237.72
2023-04-14T01:37:28.962Z,237.79
2023-04-14T01:38:28.973Z,236.80
2023-04-14T01:39:28.953Z,234.43
2023-04-14T01:40:29.008Z,240.05
2023-04-14T01:41:29.027Z,238.13
2023-04-14T01:42:29.100Z,237.07
2023-04-14T01:43:29.101Z,233.49
2023-04-14T01:44:29.100Z,237.29
2023-04-14T01:45:29.157Z,234.20
2023-04-14T01:46:29.167Z,236.66
2023-04-14T01:47:29.220Z,238.68
2023-04-14T01:48:29.191Z,236.25
2023-04-14T01:49:29.247Z,236.00
2023-04-14T01:50:29.250Z,237.34
2023-04-14T01:51:29.263Z,235.97
2023-04-14T01:52:29.287Z,236.05
2023-04-14T01:53:29.294Z,236.24
2023-04-14T01:54:29.378Z,234.91
2023-04-14T01:55:29.338Z,234.47
2023-04-14T01:56:29.413Z,234.85
2023-04-14T01:57:29.400Z,233.54
2023-04-14T01:58:29.439Z,235.56
2023-04-14T01:59:29.481Z,236.01
2023-04-14T02:00:29.518Z,237.01
2023-04-14T02:01:29.665Z,236.21
2023-04-14T02:02:29.739Z,239.13
2023-04-14T02:03:29.652Z,234.29
2023-04-14T02:04:29.641Z,237.14
2023-04-14T02:05:29.631Z,233.36
2023-04-14T02:06:29.660Z,233.44
2023-04-14T02:07:29.722Z,233.55
2023-04-14T02:08:29.712Z,234.32
2023-04-14T02:09:29.789Z,238.90
2023-04-14T02:10:29.897Z,235.07
2023-04-14T02:11:29.795Z,239.31
2023-04-14T02:12:29.805Z,237.50
2023-04-14T02:13:29.840Z,234.11
2023-04-14T02:14:29.874Z,230.92
2023-04-14T02:15:29.928Z,233.89
2023-04-14T02:16:29.966Z,232.47
2023-04-14T02:17:30.006Z,238.50
2023-04-14T02:18:29.944Z,237.29
2023-04-14T02:19:29.984Z,232.48
2023-04-14T02:20:30.048Z,239.41
2023-04-14T02:21:30.073Z,235.73
2023-04-14T02:22:30.074Z,236.45
2023-04-14T02:23:30.128Z,234.48
2023-04-14T02:24:30.117Z,239.51
2023-04-14T02:25:30.197Z,232.26
2023-04-14T02:26:30.210Z,234.34
2023-04-14T02:27:30.215Z,231.86
2023-04-14T02:28:30.324Z,232.14
2023-04-14T02:29:30.286Z,232.98
2023-04-14T02:30:30.309Z,234.82
2023-04-14T02:31:30.368Z,233.23
2023-04-14T02:32:30.412Z,237.36
2023-04-14T02:33:30.350Z,229.84
2023-04-14T02:34:30.415Z,236.20
2023-04-14T02:35:30.408Z,237.96
2023-04-14T02:36:31.297Z,233.49
2023-04-14T02:37:30.478Z,238.94
2023-04-14T02:38:30.485Z,235.03
2023-04-14T02:39:30.534Z,238.85
2023-04-14T02:40:30.569Z,235.11
2023-04-14T02:41:30.629Z,234.27
2023-04-14T02:42:30.622Z,232.31
2023-04-14T02:43:30.623Z,235.87
2023-04-14T02:44:30.737Z,238.42
2023-04-14T02:45:30.742Z,235.91
2023-04-14T02:46:30.775Z,235.70
2023-04-14T02:47:30.811Z,238.39
2023-04-14T02:48:30.770Z,237.06
2023-04-14T02:49:30.837Z,235.17
2023-04-14T02:50:30.890Z,232.76
2023-04-14T02:51:30.893Z,229.16
2023-04-14T02:52:30.897Z,233.69
2023-04-14T02:53:30.893Z,228.24
2023-04-14T02:54:30.934Z,233.43
2023-04-14T02:55:30.984Z,233.09
2023-04-14T02:56:30.986Z,232.46
2023-04-14T02:57:31.091Z,234.64
2023-04-14T02:58:31.079Z,233.92
2023-04-14T02:59:31.093Z,234.19
2023-04-14T03:00:31.158Z,235.09
2023-04-14T03:01:31.178Z,233.24
2023-04-14T03:02:31.308Z,234.53
2023-04-14T03:03:31.226Z,238.94
2023-04-14T03:04:31.319Z,231.45
2023-04-14T03:05:31.325Z,236.07
2023-04-14T03:06:31.291Z,234.41
2023-04-14T03:07:31.359Z,231.43
2023-04-14T03:08:31.418Z,233.14
2023-04-14T03:09:31.430Z,235.37
2023-04-14T03:10:31.425Z,229.12
2023-04-14T03:11:31.484Z,227.76
2023-04-14T03:12:31.499Z,234.24
2023-04-14T03:13:31.520Z,232.97
2023-04-14T03:14:31.597Z,233.11
2023-04-14T03:15:31.578Z,235.10
2023-04-14T03:16:31.701Z,230.09
2023-04-14T03:17:31.735Z,231.27
2023-04-14T03:18:31.632Z,234.97
2023-04-14T03:19:31.693Z,230.91
2023-04-14T03:20:31.739Z,231.07
2023-04-14T03:21:31.748Z,227.84
2023-04-14T03:22:31.778Z,231.78
2023-04-14T03:23:31.791Z,234.23
2023-04-14T03:24:31.822Z,232.79
2023-04-14T03:25:31.884Z,232.39
2023-04-14T03:26:31.883Z,232.48
2023-04-14T03:27:31.921Z,230.48
2023-04-14T03:28:31.969Z,233.79
2023-04-14T03:29:31.991Z,230.35
2023-04-14T03:30:32.015Z,228.95
2023-04-14T03:31:32.087Z,229.17
2023-04-14T03:32:32.143Z,232.11
2023-04-14T03:33:32.100Z,232.28
2023-04-14T03:34:32.107Z,230.25
2023-04-14T03:35:32.314Z,231.03
2023-04-14T03:36:32.151Z,235.11
2023-04-14T03:37:32.187Z,231.76
2023-04-14T03:38:32.229Z,230.14
2023-04-14T03:39:32.289Z,228.69
2023-04-14T03:40:32.357Z,230.24
2023-04-14T03:41:32.279Z,232.38
2023-04-14T03:42:32.360Z,231.99
2023-04-14T03:43:32.467Z,230.97
2023-04-14T03:44:32.393Z,229.03
2023-04-14T03:45:32.440Z,229.15
2023-04-14T03:46:32.494Z,233.44
2023-04-14T03:47:32.526Z,230.66
2023-04-14T03:48:32.652Z,227.89
2023-04-14T03:49:32.555Z,229.60
2023-04-14T03:50:32.688Z,227.81
2023-04-14T03:51:32.634Z,226.19
2023-04-14T03:52:32.613Z,229.95
2023-04-14T03:53:32.641Z,225.63
2023-04-14T03:54:32.658Z,227.32
2023-04-14T03:55:32.684Z,232.62
2023-04-14T03:56:32.695Z,231.04
2023-04-14T03:57:32.772Z,232.90
2023-04-14T03:58:32.879Z,230.38
2023-04-14T03:59:32.848Z,231.22
2023-04-14T04:00:32.835Z,233.25
2023-04-14T04:01:32.877Z,227.89
2023-04-14T04:02:33.988Z,229.33
2023-04-14T04:03:33.109Z,232.18
2023-04-14T04:04:33.125Z,225.43
2023-04-14T04:05:33.005Z,226.36
2023-04-14T04:06:32.964Z,224.62
2023-04-14T04:07:33.018Z,208.72
2023-04-14T04:08:33.070Z,185.91
2023-04-14T04:09:33.078Z,123.03
2023-04-14T04:10:33.115Z,96.91
2023-04-14T04:11:33.091Z,82.36
2023-04-14T04:12:33.143Z,74.32
2023-04-14T04:13:33.218Z,53.57
2023-04-14T04:14:33.213Z,43.53
2023-04-14T04:15:33.249Z,39.22
2023-04-14T04:16:33.283Z,45.42
2023-04-14T04:17:33.344Z,38.54
2023-04-14T04:18:33.330Z,45.76
2023-04-14T04:19:33.331Z,30.77
2023-04-14T04:20:33.459Z,25.84
2023-04-14T04:21:33.421Z,25.00
2023-04-14T04:22:33.606Z,26.79
2023-04-14T04:23:33.474Z,30.32
2023-04-14T04:24:33.469Z,28.86
2023-04-14T04:25:33.476Z,27.42
2023-04-14T04:26:35.110Z,28.84
2023-04-14T04:27:33.462Z,26.94
2023-04-14T04:28:34.349Z,25.38
2023-04-14T04:29:33.462Z,29.18
2023-04-14T04:30:33.462Z,28.82
2023-04-14T04:31:33.457Z,40.99
2023-04-14T04:32:33.504Z,62.12
2023-04-14T04:33:33.404Z,69.89
2023-04-14T04:34:33.432Z,85.29
2023-04-14T04:35:33.437Z,92.58
2023-04-14T04:36:33.411Z,89.56
2023-04-14T04:37:33.421Z,105.20
2023-04-14T04:38:33.406Z,109.14
2023-04-14T04:39:33.407Z,122.18
2023-04-14T04:40:33.373Z,126.65
2023-04-14T04:41:33.376Z,133.98
2023-04-14T04:42:33.409Z,132.48
2023-04-14T04:43:33.366Z,137.77
2023-04-14T04:44:33.365Z,144.65
2023-04-14T04:45:33.405Z,147.73
2023-04-14T04:46:33.405Z,152.66
2023-04-14T04:47:33.358Z,147.94
2023-04-14T04:48:33.366Z,150.76
2023-04-14T04:49:33.302Z,151.31
2023-04-14T04:50:33.296Z,157.45
2023-04-14T04:51:33.305Z,158.30
2023-04-14T04:52:33.314Z,159.01
2023-04-14T04:53:33.291Z,161.97
2023-04-14T04:54:33.276Z,161.84
2023-04-14T04:55:33.290Z,164.24
2023-04-14T04:56:33.235Z,165.51
2023-04-14T04:57:33.246Z,169.76
2023-04-14T04:58:33.329Z,175.31
2023-04-14T04:59:33.235Z,177.88
2023-04-14T05:00:33.230Z,179.71
2023-04-14T05:01:33.246Z,175.87
2023-04-14T05:02:33.654Z,176.12
2023-04-14T05:03:33.260Z,175.92
2023-04-14T05:04:33.309Z,177.13
2023-04-14T05:05:33.253Z,181.38
2023-04-14T05:06:33.234Z,186.67
2023-04-14T05:07:33.241Z,187.64
2023-04-14T05:08:33.326Z,191.60
2023-04-14T05:09:33.504Z,193.47
2023-04-14T05:10:33.372Z,192.12
2023-04-14T05:11:33.397Z,192.27
2023-04-14T05:12:33.410Z,190.36
2023-04-14T05:13:33.514Z,192.08
2023-04-14T05:14:33.500Z,190.30
2023-04-14T05:15:33.623Z,184.91
2023-04-14T05:16:33.595Z,185.44
2023-04-14T05:17:33.651Z,186.46
2023-04-14T05:18:33.629Z,188.61
2023-04-14T05:19:33.655Z,186.49
2023-04-14T05:20:34.925Z,186.93
2023-04-14T05:21:33.721Z,184.83
2023-04-14T05:22:33.793Z,191.22
2023-04-14T05:23:33.809Z,191.71
2023-04-14T05:24:33.870Z,190.92
2023-04-14T05:25:33.904Z,193.38
2023-04-14T05:26:49.000Z,196.69
2023-04-14T05:27:34.885Z,195.57
2023-04-14T05:28:33.904Z,192.07
2023-04-14T05:29:33.839Z,197.99
2023-04-14T05:30:33.885Z,201.35
2023-04-14T05:31:33.869Z,202.03
2023-04-14T05:32:33.886Z,208.60
2023-04-14T05:33:33.805Z,245.72
2023-04-14T05:34:33.848Z,259.87
2023-04-14T05:35:33.805Z,248.51
2023-04-14T05:36:33.829Z,250.66
2023-04-14T05:37:35.704Z,249.13
2023-04-14T05:38:33.888Z,240.67
2023-04-14T05:39:33.949Z,230.28
2023-04-14T05:40:33.951Z,224.15
2023-04-14T05:41:34.059Z,219.50
2023-04-14T05:42:34.126Z,221.42
2023-04-14T05:43:34.185Z,224.16
2023-04-14T05:44:34.450Z,213.20
2023-04-14T05:45:34.301Z,220.93
2023-04-14T05:46:34.334Z,216.55
2023-04-14T05:47:34.350Z,222.23
2023-04-14T05:48:34.362Z,226.35
2023-04-14T05:49:35.428Z,228.12
2023-04-14T05:50:34.959Z,223.12
2023-04-14T05:51:35.307Z,220.45
2023-04-14T05:52:34.529Z,223.89
2023-04-14T05:53:34.686Z,223.06
2023-04-14T05:54:34.653Z,222.99
2023-04-14T05:55:34.663Z,225.88
2023-04-14T05:56:34.742Z,225.82
2023-04-14T05:57:34.693Z,221.20
2023-04-14T05:58:34.780Z,222.18
2023-04-14T05:59:34.742Z,222.70
2023-04-14T06:00:34.750Z,224.34
2023-04-14T06:01:34.982Z,224.56
2023-04-14T06:02:34.968Z,226.44
2023-04-14T06:03:36.019Z,220.62
2023-04-14T06:04:34.846Z,221.76
2023-04-14T06:05:34.794Z,224.06
2023-04-14T06:06:34.751Z,220.41
2023-04-14T06:07:34.962Z,216.28
2023-04-14T06:08:34.821Z,214.73
2023-04-14T06:09:34.788Z,212.54
2023-04-14T06:10:34.933Z,214.36
2023-04-14T06:11:34.856Z,209.36
2023-04-14T06:12:34.938Z,211.28
2023-04-14T06:13:37.416Z,210.29
2023-04-14T06:14:35.413Z,210.33
2023-04-14T06:15:34.789Z,208.57
2023-04-14T06:16:34.735Z,209.71
2023-04-14T06:17:34.696Z,208.60
2023-04-14T06:18:34.674Z,209.02
2023-04-14T06:19:34.776Z,207.19
2023-04-14T06:20:34.688Z,206.85
2023-04-14T06:21:34.696Z,207.38
2023-04-14T06:22:34.814Z,210.81
2023-04-14T06:23:34.655Z,208.56
2023-04-14T06:24:34.653Z,210.62
2023-04-14T06:25:34.620Z,212.12
2023-04-14T06:26:34.666Z,213.07
2023-04-14T06:27:35.830Z,212.35
2023-04-14T06:28:34.641Z,209.54
2023-04-14T06:29:35.108Z,207.99
2023-04-14T06:30:34.608Z,209.56
2023-04-14T06:31:34.600Z,210.77
2023-04-14T06:32:34.610Z,208.38
2023-04-14T06:33:34.567Z,209.66
2023-04-14T06:34:34.918Z,212.54
2023-04-14T06:35:34.649Z,211.44
2023-04-14T06:36:34.493Z,210.74
2023-04-14T06:37:34.527Z,210.75
2023-04-14T06:38:34.714Z,209.13
2023-04-14T06:39:34.564Z,226.65
2023-04-14T06:40:35.049Z,233.43
2023-04-14T06:41:34.526Z,233.48
2023-04-14T06:42:34.968Z,233.57
2023-04-14T06:43:34.690Z,230.14
2023-04-14T06:44:34.678Z,233.48
2023-04-14T06:46:54.229Z,25.00
2023-04-14T06:47:53.715Z,25.00
2023-04-14T06:48:53.406Z,25.00
2023-04-14T06:49:53.420Z,25.00
2023-04-14T06:50:53.428Z,25.00
2023-04-14T06:51:53.427Z,24.96
2023-04-14T06:52:53.472Z,25.11
2023-04-14T06:53:53.400Z,27.67
2023-04-14T06:54:53.558Z,28.01
2023-04-14T06:55:53.471Z,26.31
2023-04-14T06:56:53.352Z,28.22
2023-04-14T06:57:53.671Z,25.00
2023-04-14T06:58:53.519Z,27.83
2023-04-14T06:59:53.329Z,29.00
2023-04-14T07:00:53.418Z,25.00
2023-04-14T07:01:53.503Z,29.96
2023-04-14T07:02:53.506Z,28.48
2023-04-14T07:03:53.530Z,26.91
2023-04-14T07:04:53.636Z,26.12
2023-04-14T07:05:53.578Z,25.32
2023-04-14T07:06:53.746Z,26.97
2023-04-14T07:07:54.179Z,27.76
2023-04-14T07:08:53.725Z,32.81
2023-04-14T07:09:54.872Z,57.21
2023-04-14T07:10:53.997Z,58.76
2023-04-14T07:11:53.880Z,46.97
2023-04-14T07:12:54.806Z,40.79
2023-04-14T07:13:53.899Z,41.79
2023-04-14T07:14:53.963Z,37.12
2023-04-14T07:15:54.044Z,45.31
2023-04-14T07:16:54.222Z,47.12
2023-04-14T07:17:54.119Z,47.78
2023-04-14T07:18:54.218Z,50.13
2023-04-14T07:19:54.191Z,56.39
2023-04-14T07:20:54.297Z,56.69
2023-04-14T07:21:54.345Z,55.36
2023-04-14T07:22:54.478Z,50.28
2023-04-14T07:23:55.039Z,56.21
2023-04-14T07:24:54.524Z,53.96
2023-04-14T07:25:54.595Z,50.88
2023-04-14T07:26:54.634Z,54.05
2023-04-14T07:28:03.308Z,60.38
2023-04-14T07:28:55.672Z,60.61
2023-04-14T07:29:54.724Z,61.23
2023-04-14T07:30:54.695Z,61.27
2023-04-14T07:31:54.779Z,63.90
2023-04-14T07:32:54.899Z,66.49
2023-04-14T07:33:54.656Z,62.05
2023-04-14T07:34:54.635Z,51.33
2023-04-14T07:36:02.784Z,53.38
2023-04-14T07:36:55.670Z,54.03
2023-04-14T07:38:01.646Z,55.82
2023-04-14T07:38:55.590Z,54.24
2023-04-14T07:39:54.629Z,57.10
2023-04-14T07:40:54.649Z,59.02
2023-04-14T07:41:54.797Z,52.41
2023-04-14T07:42:54.676Z,45.79
2023-04-14T07:43:55.105Z,43.25
2023-04-14T07:44:54.908Z,37.51
2023-04-14T07:45:54.627Z,33.73
2023-04-14T07:46:54.623Z,35.66
2023-04-14T07:47:57.089Z,36.75
2023-04-14T07:48:54.546Z,36.88
2023-04-14T07:49:54.550Z,37.17
2023-04-14T07:50:54.547Z,39.02
2023-04-14T07:51:54.551Z,40.78
2023-04-14T07:52:54.571Z,42.48
2023-04-14T07:53:54.519Z,56.26
2023-04-14T07:54:54.502Z,68.45
2023-04-14T07:55:54.515Z,75.66
2023-04-14T07:56:54.501Z,72.31
2023-04-14T07:57:54.489Z,75.92
2023-04-14T07:58:54.437Z,75.88
2023-04-14T07:59:54.492Z,78.31
2023-04-14T08:00:54.457Z,75.58
2023-04-14T08:01:54.547Z,81.63
2023-04-14T08:02:54.685Z,85.27
2023-04-14T08:03:54.709Z,76.08
2023-04-14T08:04:54.465Z,75.39
2023-04-14T08:05:54.439Z,74.00
2023-04-14T08:06:54.506Z,74.86
2023-04-14T08:07:54.377Z,73.03
2023-04-14T08:08:54.392Z,70.14
2023-04-14T08:09:54.472Z,73.91
2023-04-14T08:10:54.579Z,68.42
2023-04-14T08:11:54.699Z,71.87
2023-04-14T08:12:54.535Z,71.86
2023-04-14T08:13:54.405Z,72.57
2023-04-14T08:14:54.362Z,65.70
2023-04-14T08:15:54.382Z,62.68
2023-04-14T08:16:54.353Z,63.51
2023-04-14T08:17:54.358Z,55.01
2023-04-14T08:18:55.806Z,51.84
2023-04-14T08:19:54.338Z,56.91
2023-04-14T08:20:54.307Z,59.36
2023-04-14T08:21:54.451Z,55.13
2023-04-14T08:22:54.317Z,62.17
2023-04-14T08:23:54.352Z,69.65
2023-04-14T08:24:54.314Z,77.83
2023-04-14T08:25:54.275Z,84.83
2023-04-14T08:26:54.653Z,78.75
2023-04-14T08:27:54.292Z,74.60
2023-04-14T08:28:54.314Z,71.42
2023-04-14T08:29:54.305Z,62.14
2023-04-14T08:30:54.256Z,57.61
2023-04-14T08:31:54.400Z,56.80
2023-04-14T08:32:54.483Z,61.10
2023-04-14T08:33:54.667Z,61.38
2023-04-14T08:35:40.050Z,62.56
2023-04-14T08:35:57.906Z,61.14
2023-04-14T08:36:55.223Z,61.46
2023-04-14T08:37:54.284Z,54.15
2023-04-14T08:38:54.191Z,42.92
2023-04-14T08:39:54.202Z,32.72
2023-04-14T08:40:54.165Z,19.51
2023-04-14T08:41:54.297Z,29.90
2023-04-14T08:42:54.178Z,35.07
2023-04-14T08:43:54.645Z,29.03
2023-04-14T08:44:54.146Z,23.64
2023-04-14T08:45:54.194Z,25.93
2023-04-14T08:46:54.106Z,30.74
2023-04-14T08:47:54.175Z,32.54
2023-04-14T08:48:54.106Z,34.63
2023-04-14T08:49:54.092Z,25.00
2023-04-14T08:50:54.141Z,28.87
2023-04-14T08:51:54.061Z,32.18
2023-04-14T08:52:54.085Z,33.47
2023-04-14T08:53:54.069Z,32.98
2023-04-14T08:54:54.083Z,35.37
2023-04-14T08:55:55.225Z,33.33
2023-04-14T08:56:54.033Z,32.86
2023-04-14T08:57:54.074Z,29.66
2023-04-14T08:58:54.120Z,37.58
2023-04-14T08:59:54.072Z,36.98
2023-04-14T09:00:54.211Z,45.02
2023-04-14T09:01:54.319Z,43.06
2023-04-14T09:02:54.136Z,42.91
2023-04-14T09:03:54.365Z,42.61
2023-04-14T09:04:54.286Z,42.50
2023-04-14T09:05:54.239Z,43.27
2023-04-14T09:06:54.350Z,46.65
2023-04-14T09:07:54.353Z,46.07
2023-04-14T09:08:54.443Z,47.48
2023-04-14T09:09:54.615Z,45.52
2023-04-14T09:10:54.552Z,45.45
2023-04-14T09:11:54.557Z,48.23
2023-04-14T09:12:54.642Z,48.79
2023-04-14T09:13:54.694Z,47.60
2023-04-14T09:14:54.708Z,43.84
2023-04-14T09:15:54.818Z,47.61
2023-04-14T09:16:54.837Z,47.90
2023-04-14T09:17:55.066Z,47.22
2023-04-14T09:18:54.914Z,47.28
2023-04-14T09:20:35.877Z,48.09
2023-04-14T09:21:49.986Z,48.25
2023-04-14T09:21:55.962Z,48.45
2023-04-14T09:22:54.919Z,49.50
2023-04-14T09:23:54.921Z,49.68
2023-04-14T09:24:54.916Z,51.83
2023-04-14T09:25:54.879Z,58.14
2023-04-14T09:26:54.903Z,55.68
2023-04-14T09:27:54.904Z,57.14
2023-04-14T09:28:54.926Z,59.33
2023-04-14T09:29:54.858Z,59.15
2023-04-14T09:30:54.935Z,62.39
2023-04-14T09:31:54.889Z,64.69
2023-04-14T09:32:55.015Z,59.06
2023-04-14T09:33:54.885Z,59.49
2023-04-14T09:34:56.707Z,58.39
2023-04-14T09:35:54.794Z,58.42
2023-04-14T09:36:54.788Z,52.60
2023-04-14T09:37:54.780Z,50.02
2023-04-14T09:38:54.819Z,57.91
2023-04-14T09:39:54.801Z,53.89
2023-04-14T09:40:56.836Z,66.25
2023-04-14T09:41:54.767Z,66.64
2023-04-14T09:42:56.684Z,68.22
2023-04-14T09:43:54.810Z,67.87
2023-04-14T09:44:55.648Z,67.31
2023-04-14T09:45:55.237Z,69.43
2023-04-14T09:46:55.703Z,69.72
2023-04-14T09:47:55.693Z,69.57
2023-04-14T09:48:54.947Z,69.89
2023-04-14T09:49:54.908Z,72.00
2023-04-14T09:50:54.959Z,73.36
2023-04-14T09:51:54.952Z,72.39
2023-04-14T09:52:54.939Z,65.54
2023-04-14T09:53:54.889Z,72.82
2023-04-14T09:54:54.938Z,82.08
2023-04-14T09:55:54.884Z,78.71
2023-04-14T09:56:54.884Z,78.04
2023-04-14T09:57:54.898Z,67.42
2023-04-14T09:58:54.873Z,74.03
2023-04-14T09:59:54.876Z,84.51
2023-04-14T10:00:55.578Z,77.15
2023-04-14T10:01:54.877Z,85.74
2023-04-14T10:02:54.923Z,80.90
2023-04-14T10:03:54.982Z,84.71
2023-04-14T10:04:54.906Z,85.42
2023-04-14T10:05:54.790Z,88.69
2023-04-14T10:06:54.806Z,90.65
2023-04-14T10:07:54.849Z,89.65
2023-04-14T10:08:54.830Z,83.84
2023-04-14T10:09:54.777Z,83.47
2023-04-14T10:10:54.791Z,79.48
2023-04-14T10:11:54.863Z,79.99
2023-04-14T10:12:54.791Z,78.53
2023-04-14T10:13:54.773Z,79.94
2023-04-14T10:14:54.923Z,77.69
2023-04-14T10:15:55.052Z,79.08
2023-04-14T10:16:54.925Z,75.31
2023-04-14T10:17:55.028Z,73.50
2023-04-14T10:18:55.054Z,70.80
2023-04-14T10:19:55.146Z,80.06
2023-04-14T10:20:55.161Z,79.50
2023-04-14T10:21:55.182Z,70.29
2023-04-14T10:22:55.269Z,71.98
2023-04-14T10:23:55.312Z,67.69
2023-04-14T10:24:55.428Z,68.22
2023-04-14T10:25:55.504Z,65.70
2023-04-14T10:26:55.518Z,59.40
2023-04-14T10:27:55.624Z,55.94
2023-04-14T10:28:55.618Z,57.65
2023-04-14T10:29:55.671Z,62.36
2023-04-14T10:30:55.758Z,67.73
2023-04-14T10:31:55.844Z,63.56
2023-04-14T10:32:55.916Z,68.68
2023-04-14T10:33:55.914Z,69.46
2023-04-14T10:34:55.966Z,65.58
2023-04-14T10:35:56.078Z,67.15
2023-04-14T10:36:56.109Z,70.66
2023-04-14T10:37:56.318Z,63.62
2023-04-14T10:38:56.196Z,62.92
2023-04-14T10:39:56.314Z,65.30
2023-04-14T10:40:56.299Z,56.41
2023-04-14T10:41:56.334Z,61.19
2023-04-14T10:42:56.411Z,71.05
2023-04-14T10:43:56.445Z,70.03
2023-04-14T10:44:56.453Z,62.81
2023-04-14T10:45:56.544Z,54.46
2023-04-14T10:46:56.829Z,48.24
2023-04-14T10:47:56.603Z,49.36
2023-04-14T10:48:56.603Z,59.08
2023-04-14T10:49:56.631Z,69.04
2023-04-14T10:50:56.681Z,74.06
2023-04-14T10:51:56.739Z,75.51
2023-04-14T10:52:56.820Z,72.64
2023-04-14T10:53:56.874Z,67.06
2023-04-14T10:54:56.983Z,57.37
2023-04-14T10:55:56.885Z,45.02
2023-04-14T10:56:56.901Z,55.28
2023-04-14T10:57:56.973Z,56.74
2023-04-14T10:58:57.033Z,56.63
2023-04-14T10:59:57.298Z,53.75
2023-04-14T11:00:57.298Z,60.86
2023-04-14T11:01:57.357Z,59.07
2023-04-14T11:02:57.406Z,57.28
2023-04-14T11:03:57.750Z,46.96
2023-04-14T11:04:57.390Z,45.10
2023-04-14T11:05:57.457Z,38.63
2023-04-14T11:06:57.528Z,33.55
2023-04-14T11:07:59.304Z,25.00
2023-04-14T11:08:57.601Z,25.00
2023-04-14T11:09:57.598Z,26.06
2023-04-14T11:10:57.560Z,28.29
2023-04-14T11:11:57.578Z,30.56
2023-04-14T11:12:57.515Z,26.59
2023-04-14T11:13:57.500Z,28.81
2023-04-14T11:14:57.673Z,25.00
2023-04-14T11:15:57.537Z,26.63
2023-04-14T11:17:03.735Z,28.13
2023-04-14T11:17:58.804Z,28.44
2023-04-14T11:18:57.494Z,24.76
2023-04-14T11:19:57.705Z,21.55
2023-04-14T11:20:57.498Z,22.26
2023-04-14T11:21:58.252Z,28.68
2023-04-14T11:22:57.631Z,25.37
2023-04-14T11:23:57.437Z,25.87
2023-04-14T11:24:57.437Z,38.44
2023-04-14T11:25:57.539Z,58.33
2023-04-14T11:26:57.573Z,58.73
2023-04-14T11:27:57.411Z,67.01
2023-04-14T11:28:57.428Z,81.45
2023-04-14T11:29:57.490Z,80.35
2023-04-14T11:30:57.564Z,95.98
2023-04-14T11:31:57.623Z,110.35
2023-04-14T11:32:57.674Z,111.24
2023-04-14T11:33:57.591Z,104.89
2023-04-14T11:34:57.654Z,102.71
2023-04-14T11:35:57.651Z,99.43
2023-04-14T11:36:57.639Z,99.46
2023-04-14T11:37:57.666Z,104.47
2023-04-14T11:38:57.764Z,93.90
2023-04-14T11:39:57.712Z,79.78
2023-04-14T11:40:57.879Z,101.21
2023-04-14T11:41:57.774Z,93.38
2023-04-14T11:42:57.791Z,77.79
2023-04-14T11:43:57.861Z,66.71
2023-04-14T11:44:57.812Z,50.74
2023-04-14T11:45:57.924Z,33.42
2023-04-14T11:46:57.900Z,50.11
2023-04-14T11:47:57.997Z,57.18
2023-04-14T11:48:58.151Z,30.52
2023-04-14T11:49:58.008Z,26.07
2023-04-14T11:50:58.117Z,40.55
2023-04-14T11:51:58.096Z,48.02
2023-04-14T11:52:58.135Z,47.61
2023-04-14T11:53:58.141Z,51.04
2023-04-14T11:54:58.186Z,40.72
2023-04-14T11:55:58.206Z,25.00
2023-04-14T11:56:58.246Z,25.00
2023-04-14T11:57:58.262Z,29.73
2023-04-14T11:58:58.347Z,25.00
2023-04-14T11:59:58.322Z,23.85
2023-04-14T12:00:58.451Z,26.00
2023-04-14T12:01:58.477Z,41.42
2023-04-14T12:02:58.926Z,57.21
2023-04-14T12:03:58.583Z,50.09
2023-04-14T12:04:58.765Z,63.43
2023-04-14T12:05:58.632Z,66.58
2023-04-14T12:06:58.641Z,72.91
2023-04-14T12:07:58.723Z,83.74
2023-04-14T12:08:58.857Z,79.36
2023-04-14T12:09:58.927Z,86.18
2023-04-14T12:10:58.731Z,92.93
2023-04-14T12:11:58.795Z,96.50
2023-04-14T12:12:58.665Z,105.25
2023-04-14T12:13:58.692Z,112.55
2023-04-14T12:14:58.677Z,113.95
2023-04-14T12:15:58.677Z,114.19
2023-04-14T12:16:58.661Z,118.65
2023-04-14T12:17:58.655Z,120.91
2023-04-14T12:18:58.621Z,122.04
2023-04-14T12:19:58.599Z,121.64
2023-04-14T12:20:58.647Z,120.25
2023-04-14T12:21:58.573Z,114.76
2023-04-14T12:22:58.579Z,116.43
2023-04-14T12:23:58.582Z,112.86
2023-04-14T12:24:58.597Z,119.01
2023-04-14T12:25:58.678Z,118.44
2023-04-14T12:26:58.536Z,118.46
2023-04-14T12:27:58.556Z,119.33
2023-04-14T12:28:58.598Z,120.75
2023-04-14T12:29:58.523Z,113.50
2023-04-14T12:30:58.538Z,118.32
2023-04-14T12:31:58.612Z,121.74
2023-04-14T12:32:58.788Z,127.32
2023-04-14T12:33:58.524Z,122.63
2023-04-14T12:34:58.528Z,119.21
2023-04-14T12:35:58.514Z,101.53
2023-04-14T12:36:58.548Z,100.43
2023-04-14T12:37:58.462Z,97.75
2023-04-14T12:38:58.523Z,96.52
2023-04-14T12:39:58.524Z,100.05
2023-04-14T12:40:58.473Z,107.54